createdAt,value
2022-11-14T00:00:34.485Z,94566.47
2022-11-14T00:03:03.153Z,94561.31
2022-11-14T00:05:29.904Z,94566.03
2022-11-14T00:07:56.671Z,94568.63
2022-11-14T00:10:23.867Z,94559.44
2022-11-14T00:12:50.550Z,94550.97
2022-11-14T00:15:17.562Z,94562.34
2022-11-14T00:17:44.191Z,94568.78
2022-11-14T00:20:12.437Z,94565.88
2022-11-14T00:22:39.182Z,94574.97
2022-11-14T00:25:06.211Z,94587.91
2022-11-14T00:27:32.794Z,94603.94
2022-11-14T00:29:59.431Z,94598.31
2022-11-14T00:32:26.180Z,94588.22
2022-11-14T00:34:52.775Z,94577.53
2022-11-14T00:37:19.361Z,94585.84
2022-11-14T00:39:46.004Z,94584.78
2022-11-14T00:42:12.694Z,94559.59
2022-11-14T00:44:39.423Z,94577.59
2022-11-14T00:47:06.089Z,94567.88
2022-11-14T00:49:32.705Z,94565.66
2022-11-14T00:51:59.437Z,94562.09
2022-11-14T00:54:26.810Z,94563.78
2022-11-14T00:56:53.461Z,94569.59
2022-11-14T00:59:20.192Z,94568.13
2022-11-14T01:01:46.848Z,94552.47
2022-11-14T01:04:13.543Z,94557.44
2022-11-14T01:06:40.288Z,94534.94
2022-11-14T01:09:06.981Z,94556.94
2022-11-14T01:11:33.746Z,94549.25
2022-11-14T01:14:00.459Z,94542.38
2022-11-14T01:16:27.156Z,94536.25
2022-11-14T01:18:53.873Z,94523.13
2022-11-14T01:21:20.523Z,94508.09
2022-11-14T01:23:47.131Z,94524.28
2022-11-14T01:26:14.646Z,94525.47
2022-11-14T01:28:41.501Z,94529.91
2022-11-14T01:31:13.381Z,94519.69
2022-11-14T01:33:40.041Z,94517.81
2022-11-14T01:36:07.018Z,94518.44
2022-11-14T01:38:34.041Z,94522.88
2022-11-14T01:41:01.130Z,94524.03
2022-11-14T01:43:33.049Z,94515.44
2022-11-14T01:46:27.819Z,94497.09
2022-11-14T01:48:58.740Z,94493.94
2022-11-14T01:51:29.819Z,94497.31
2022-11-14T01:53:58.702Z,94488.47
2022-11-14T01:56:33.610Z,94481.72
2022-11-14T01:59:07.936Z,94468.28
2022-11-14T02:01:37.193Z,94473.63
2022-11-14T02:04:06.742Z,94468.84
2022-11-14T02:06:34.144Z,94462.81
2022-11-14T02:09:04.487Z,94460.47
2022-11-14T02:11:33.831Z,94465.63
2022-11-14T02:14:00.975Z,94465.63
2022-11-14T02:16:27.838Z,94451.16
2022-11-14T02:18:54.569Z,94456.56
2022-11-14T02:21:21.811Z,94472.47
2022-11-14T02:23:48.419Z,94468.59
2022-11-14T02:26:22.183Z,94468.59
2022-11-14T02:28:48.979Z,94467.25
2022-11-14T02:31:16.027Z,94465.91
2022-11-14T02:33:42.839Z,94459.53
2022-11-14T02:36:09.618Z,94450.16
2022-11-14T02:38:36.819Z,94443.75
2022-11-14T02:41:03.961Z,94450.16
2022-11-14T02:43:30.577Z,94453.41
2022-11-14T02:46:01.392Z,94442.91
2022-11-14T02:48:31.387Z,94434.75
2022-11-14T02:50:58.233Z,94432.47
2022-11-14T02:53:25.047Z,94441.53
2022-11-14T02:55:51.877Z,94444.38
2022-11-14T02:58:18.582Z,94447.31
2022-11-14T03:01:13.383Z,94435.84
2022-11-14T03:03:31.889Z,94424.66
2022-11-14T03:06:02.693Z,94435.59
2022-11-14T03:08:29.778Z,94429.00
2022-11-14T03:10:57.001Z,94431.59
2022-11-14T03:13:23.730Z,94429.00
2022-11-14T03:15:50.349Z,94421.63
2022-11-14T03:18:17.086Z,94415.16
2022-11-14T03:20:43.749Z,94410.19
2022-11-14T03:23:10.839Z,94405.56
2022-11-14T03:25:37.504Z,94411.09
2022-11-14T03:28:04.401Z,94401.03
2022-11-14T03:30:31.590Z,94403.56
2022-11-14T03:32:58.379Z,94407.63
2022-11-14T03:35:25.057Z,94407.56
2022-11-14T03:37:56.021Z,94406.53
2022-11-14T03:40:23.112Z,94393.88
2022-11-14T03:42:49.859Z,94397.53
2022-11-14T03:45:16.662Z,94392.31
2022-11-14T03:47:43.460Z,94393.47
2022-11-14T03:50:10.149Z,94393.00
2022-11-14T03:52:36.861Z,94392.13
2022-11-14T03:55:03.714Z,94388.22
2022-11-14T03:57:30.400Z,94390.19
2022-11-14T03:59:57.111Z,94388.66
2022-11-14T04:02:23.801Z,94387.06
2022-11-14T04:04:50.454Z,94379.53
2022-11-14T04:07:17.311Z,94379.25
2022-11-14T04:09:45.023Z,94380.06
2022-11-14T04:12:15.701Z,94389.31
2022-11-14T04:14:42.667Z,94389.59
2022-11-14T04:17:09.498Z,94384.44
2022-11-14T04:19:36.229Z,94388.78
2022-11-14T04:22:03.168Z,94374.22
2022-11-14T04:24:29.876Z,94357.53
2022-11-14T04:26:56.521Z,94390.72
2022-11-14T04:29:23.576Z,94375.28
2022-11-14T04:31:50.530Z,94369.59
2022-11-14T04:34:17.320Z,94360.72
2022-11-14T04:36:44.439Z,94348.25
2022-11-14T04:39:11.127Z,94348.09
2022-11-14T04:41:37.842Z,94364.31
2022-11-14T04:44:04.530Z,94370.72
2022-11-14T04:46:31.229Z,94380.50
2022-11-14T04:48:57.923Z,94380.84
2022-11-14T04:51:24.622Z,94370.03
2022-11-14T04:53:51.306Z,94375.53
2022-11-14T04:56:18.051Z,94357.34
2022-11-14T04:58:44.721Z,94382.66
2022-11-14T05:01:12.439Z,94378.94
2022-11-14T05:03:39.179Z,94379.22
2022-11-14T05:06:06.020Z,94377.78
2022-11-14T05:08:33.110Z,94371.56
2022-11-14T05:10:59.981Z,94368.38
2022-11-14T05:13:26.730Z,94363.84
2022-11-14T05:15:53.411Z,94362.59
2022-11-14T05:18:20.139Z,94351.09
2022-11-14T05:20:46.726Z,94366.78
2022-11-14T05:23:20.437Z,94362.00
2022-11-14T05:25:47.656Z,94363.59
2022-11-14T05:28:14.350Z,94348.94
2022-11-14T05:30:40.917Z,94358.16
2022-11-14T05:33:07.495Z,94353.03
2022-11-14T05:35:34.064Z,94353.47
2022-11-14T05:38:02.353Z,94353.03
2022-11-14T05:40:28.958Z,94343.00
2022-11-14T05:42:56.778Z,94344.41
2022-11-14T05:45:23.404Z,94353.38
2022-11-14T05:47:53.878Z,94349.13
2022-11-14T05:50:20.626Z,94341.31
2022-11-14T05:52:47.270Z,94342.22
2022-11-14T05:55:13.904Z,94347.34
2022-11-14T05:57:40.618Z,94353.38
2022-11-14T06:00:09.348Z,94343.16
2022-11-14T06:02:36.043Z,94362.69
2022-11-14T06:05:02.855Z,94361.66
2022-11-14T06:07:29.583Z,94361.25
2022-11-14T06:09:56.316Z,94371.03
2022-11-14T06:12:22.975Z,94372.63
2022-11-14T06:14:49.667Z,94370.94
2022-11-14T06:17:16.368Z,94352.81
2022-11-14T06:19:43.050Z,94369.16
2022-11-14T06:22:09.756Z,94379.72
2022-11-14T06:24:36.587Z,94376.00
2022-11-14T06:27:03.329Z,94385.31
2022-11-14T06:29:34.331Z,94376.53
2022-11-14T06:32:02.252Z,94377.88
2022-11-14T06:34:29.018Z,94383.28
2022-11-14T06:36:55.748Z,94394.19
2022-11-14T06:39:22.408Z,94380.66
2022-11-14T06:41:49.189Z,94376.50
2022-11-14T06:44:15.976Z,94383.13
2022-11-14T06:46:42.667Z,94387.28
2022-11-14T06:49:09.355Z,94382.16
2022-11-14T06:51:36.060Z,94393.19
2022-11-14T06:54:02.830Z,94402.56
2022-11-14T06:56:29.527Z,94397.88
2022-11-14T06:58:56.308Z,94405.34
2022-11-14T07:01:26.007Z,94411.91
2022-11-14T07:03:52.699Z,94411.91
2022-11-14T07:06:24.859Z,94406.25
2022-11-14T07:08:52.728Z,94403.50
2022-11-14T07:11:25.457Z,94397.59
2022-11-14T07:13:57.890Z,94389.13
2022-11-14T07:16:32.318Z,94391.06
2022-11-14T07:18:59.991Z,94381.72
2022-11-14T07:21:28.210Z,94397.84
2022-11-14T07:23:55.377Z,94392.84
2022-11-14T07:26:22.137Z,94404.56
2022-11-14T07:28:52.885Z,94414.00
2022-11-14T07:31:21.757Z,94415.56
2022-11-14T07:33:48.634Z,94409.78
2022-11-14T07:36:16.457Z,94408.66
2022-11-14T07:38:43.395Z,94416.53
2022-11-14T07:41:12.236Z,94427.97
2022-11-14T07:43:39.555Z,94427.69
2022-11-14T07:46:14.847Z,94423.00
2022-11-14T07:48:41.850Z,94433.38
2022-11-14T07:51:13.129Z,94437.81
2022-11-14T07:53:39.875Z,94435.81
2022-11-14T07:56:11.308Z,94428.50
2022-11-14T07:58:39.300Z,94445.66
2022-11-14T08:01:07.272Z,94441.47
2022-11-14T08:03:34.641Z,94432.09
2022-11-14T08:06:06.176Z,94433.31
2022-11-14T08:08:33.351Z,94450.88
2022-11-14T08:11:00.712Z,94443.69
2022-11-14T08:13:32.607Z,94440.25
2022-11-14T08:16:02.359Z,94431.03
2022-11-14T08:18:29.444Z,94437.13
2022-11-14T08:20:57.757Z,94440.66
2022-11-14T08:23:24.528Z,94453.22
2022-11-14T08:25:51.418Z,94437.22
2022-11-14T08:28:18.139Z,94434.75
2022-11-14T08:30:44.827Z,94449.75
2022-11-14T08:33:11.809Z,94459.47
2022-11-14T08:35:38.609Z,94445.72
2022-11-14T08:38:05.510Z,94447.16
2022-11-14T08:40:32.437Z,94438.38
2022-11-14T08:43:01.188Z,94455.59
2022-11-14T08:45:28.770Z,94431.53
2022-11-14T08:47:55.785Z,94440.88
2022-11-14T08:50:22.588Z,94446.69
2022-11-14T08:52:51.136Z,94442.84
2022-11-14T08:55:18.667Z,94437.09
2022-11-14T08:57:49.162Z,94432.88
2022-11-14T09:00:16.959Z,94421.00
2022-11-14T09:02:43.772Z,94426.16
2022-11-14T09:05:10.618Z,94419.47
2022-11-14T09:07:37.447Z,94421.91
2022-11-14T09:10:04.874Z,94422.75
2022-11-14T09:12:31.672Z,94416.47
2022-11-14T09:14:58.356Z,94422.75
2022-11-14T09:17:25.076Z,94424.38
2022-11-14T09:19:51.846Z,94416.72
2022-11-14T09:22:18.696Z,94418.88
2022-11-14T09:24:47.516Z,94424.25
2022-11-14T09:27:14.367Z,94429.59
2022-11-14T09:29:41.118Z,94416.81
2022-11-14T09:32:07.868Z,94405.06
2022-11-14T09:34:34.587Z,94418.25
2022-11-14T09:37:01.314Z,94405.28
2022-11-14T09:39:27.984Z,94411.16
2022-11-14T09:42:16.841Z,94411.56
2022-11-14T09:44:48.300Z,94411.63
2022-11-14T09:47:28.246Z,94406.50
2022-11-14T09:49:59.808Z,94403.63
2022-11-14T09:52:32.097Z,94391.84
2022-11-14T09:55:01.585Z,94396.41
2022-11-14T09:57:29.034Z,94390.31
2022-11-14T09:59:56.228Z,94377.75
2022-11-14T10:02:49.425Z,94365.81
2022-11-14T10:05:23.755Z,94381.50
2022-11-14T10:08:23.515Z,94388.44
2022-11-14T10:10:52.317Z,94383.28
2022-11-14T10:13:47.489Z,94376.94
2022-11-14T10:16:24.317Z,94375.69
2022-11-14T10:19:12.316Z,94380.69
2022-11-14T10:22:14.098Z,94376.41
2022-11-14T10:24:45.437Z,94375.88
2022-11-14T10:27:19.726Z,94373.97
2022-11-14T10:30:25.506Z,94374.94
2022-11-14T10:33:19.936Z,94377.03
2022-11-14T10:35:53.389Z,94380.16
2022-11-14T10:38:34.247Z,94378.91
2022-11-14T10:41:09.397Z,94373.84
2022-11-14T10:43:42.176Z,94375.09
2022-11-14T10:46:21.993Z,94362.16
2022-11-14T10:48:50.835Z,94366.56
2022-11-14T10:51:29.322Z,94368.06
2022-11-14T10:54:00.491Z,94354.72
2022-11-14T10:56:27.287Z,94363.66
2022-11-14T10:58:53.977Z,94372.81
2022-11-14T11:01:42.055Z,94370.19
2022-11-14T11:04:34.171Z,94363.88
2022-11-14T11:07:07.226Z,94363.13
2022-11-14T11:09:57.595Z,94350.50
2022-11-14T11:12:40.011Z,94349.41
2022-11-14T11:15:24.496Z,94351.47
2022-11-14T11:17:58.116Z,94338.31
2022-11-14T11:20:27.387Z,94352.59
2022-11-14T11:23:18.037Z,94347.53
2022-11-14T11:25:44.748Z,94338.47
2022-11-14T11:28:13.052Z,94331.38
2022-11-14T11:30:40.375Z,94338.00
2022-11-14T11:33:24.139Z,94340.06
2022-11-14T11:35:55.424Z,94337.94
2022-11-14T11:38:22.345Z,94328.78
2022-11-14T11:40:51.886Z,94334.19
2022-11-14T11:43:43.595Z,94336.03
2022-11-14T11:46:16.246Z,94330.16
2022-11-14T11:48:46.525Z,94325.34
2022-11-14T11:51:17.707Z,94323.63
2022-11-14T11:53:58.766Z,94319.16
2022-11-14T11:56:28.014Z,94327.38
2022-11-14T11:59:01.456Z,94317.00
2022-11-14T12:01:28.097Z,94310.31
2022-11-14T12:03:55.104Z,94314.31
2022-11-14T12:06:27.370Z,94299.69
2022-11-14T12:09:18.487Z,94305.34
2022-11-14T12:12:06.615Z,94296.47
2022-11-14T12:14:54.378Z,94296.78
2022-11-14T12:17:42.575Z,94296.94
2022-11-14T12:20:20.687Z,94299.88
2022-11-14T12:22:56.122Z,94293.59
2022-11-14T12:25:44.112Z,94294.09
2022-11-14T12:28:17.087Z,94297.63
2022-11-14T12:30:48.585Z,94289.22
2022-11-14T12:33:30.796Z,94290.44
2022-11-14T12:36:03.254Z,94305.53
2022-11-14T12:38:35.244Z,94293.47
2022-11-14T12:41:02.576Z,94285.59
2022-11-14T12:43:38.766Z,94283.38
2022-11-14T12:46:11.705Z,94282.47
2022-11-14T12:48:46.175Z,94282.56
2022-11-14T12:51:25.497Z,94288.38
2022-11-14T12:53:56.655Z,94279.66
2022-11-14T12:56:23.400Z,94289.88
2022-11-14T12:59:11.859Z,94282.28
2022-11-14T13:01:53.594Z,94282.44
2022-11-14T13:04:29.494Z,94276.88
2022-11-14T13:07:34.677Z,94273.41
2022-11-14T13:10:19.850Z,94271.09
2022-11-14T13:13:31.112Z,94269.66
2022-11-14T13:16:17.395Z,94278.41
2022-11-14T13:19:38.117Z,94284.81
2022-11-14T13:22:16.803Z,94288.31
2022-11-14T13:25:09.684Z,94283.31
2022-11-14T13:28:05.946Z,94293.03
2022-11-14T13:31:12.646Z,94291.69
2022-11-14T13:33:46.330Z,94275.97
2022-11-14T13:36:32.056Z,94278.31
2022-11-14T13:39:50.126Z,94285.94
2022-11-14T13:42:48.937Z,94287.25
2022-11-14T13:45:34.256Z,94280.78
2022-11-14T13:48:15.215Z,94279.09
2022-11-14T13:50:43.181Z,94276.03
2022-11-14T13:53:16.627Z,94277.19
2022-11-14T13:56:04.898Z,94284.38
2022-11-14T13:58:50.697Z,94286.03
2022-11-14T14:01:28.049Z,94291.19
2022-11-14T14:04:48.945Z,94292.91
2022-11-14T14:07:27.433Z,94298.06
2022-11-14T14:10:15.235Z,94296.00
2022-11-14T14:13:06.755Z,94289.28
2022-11-14T14:15:59.268Z,94293.44
2022-11-14T14:19:04.731Z,94289.44
2022-11-14T14:22:08.805Z,94292.97
2022-11-14T14:24:54.134Z,94290.50
2022-11-14T14:27:38.274Z,94286.81
2022-11-14T14:30:12.124Z,94288.88
2022-11-14T14:32:39.252Z,94290.25
2022-11-14T14:35:25.985Z,94292.19
2022-11-14T14:37:54.117Z,94282.28
2022-11-14T14:40:35.436Z,94279.50
2022-11-14T14:43:05.185Z,94280.94
2022-11-14T14:45:44.725Z,94286.31
2022-11-14T14:48:16.708Z,94288.66
2022-11-14T14:50:49.614Z,94288.03
2022-11-14T14:53:27.716Z,94287.00
2022-11-14T14:56:02.495Z,94301.41
2022-11-14T14:58:33.077Z,94293.59
2022-11-14T15:01:13.104Z,94295.59
2022-11-14T15:03:46.895Z,94286.84
2022-11-14T15:06:30.698Z,94299.09
2022-11-14T15:08:59.910Z,94285.44
2022-11-14T15:11:32.261Z,94305.13
2022-11-14T15:13:59.543Z,94295.22
2022-11-14T15:16:26.555Z,94283.63
2022-11-14T15:18:54.848Z,94287.50
2022-11-14T15:21:23.217Z,94294.63
2022-11-14T15:24:13.885Z,94300.25
2022-11-14T15:26:44.545Z,94305.56
2022-11-14T15:29:23.075Z,94307.59
2022-11-14T15:31:54.681Z,94283.19
2022-11-14T15:34:24.876Z,94307.13
2022-11-14T15:37:19.045Z,94302.53
2022-11-14T15:39:46.854Z,94300.66
2022-11-14T15:42:29.017Z,94303.00
2022-11-14T15:44:56.282Z,94296.91
2022-11-14T15:47:24.169Z,94298.38
2022-11-14T15:50:14.171Z,94299.13
2022-11-14T15:52:48.276Z,94294.13
2022-11-14T15:55:24.450Z,94303.09
2022-11-14T15:58:00.886Z,94304.78
2022-11-14T16:00:45.700Z,94305.13
2022-11-14T16:03:14.685Z,94305.34
2022-11-14T16:05:41.605Z,94311.75
2022-11-14T16:08:10.784Z,94313.19
2022-11-14T16:10:39.152Z,94315.59
2022-11-14T16:13:06.458Z,94316.09
2022-11-14T16:15:33.120Z,94309.97
2022-11-14T16:17:59.843Z,94312.56
2022-11-14T16:20:29.210Z,94315.31
2022-11-14T16:22:58.658Z,94320.53
2022-11-14T16:25:27.492Z,94324.09
2022-11-14T16:27:54.365Z,94325.91
2022-11-14T16:30:22.495Z,94328.47
2022-11-14T16:32:50.334Z,94328.06
2022-11-14T16:35:27.774Z,94332.47
2022-11-14T16:37:55.272Z,94337.50
2022-11-14T16:40:27.548Z,94338.53
2022-11-14T16:42:55.235Z,94330.34
2022-11-14T16:45:22.162Z,94325.97
2022-11-14T16:47:49.677Z,94327.19
2022-11-14T16:50:17.460Z,94318.78
2022-11-14T16:52:44.276Z,94333.13
2022-11-14T16:55:12.085Z,94332.94
2022-11-14T16:57:39.494Z,94331.34
2022-11-14T17:00:08.686Z,94332.16
2022-11-14T17:02:35.385Z,94337.31
2022-11-14T17:05:02.104Z,94342.13
2022-11-14T17:07:33.407Z,94331.75
2022-11-14T17:10:00.879Z,94336.13
2022-11-14T17:12:28.117Z,94337.72
2022-11-14T17:14:54.853Z,94332.34
2022-11-14T17:17:21.879Z,94330.75
2022-11-14T17:19:48.975Z,94330.94
2022-11-14T17:22:17.543Z,94330.56
2022-11-14T17:24:44.804Z,94331.75
2022-11-14T17:27:13.215Z,94327.94
2022-11-14T17:29:40.155Z,94321.78
2022-11-14T17:32:06.978Z,94319.81
2022-11-14T17:34:33.689Z,94311.63
2022-11-14T17:37:00.327Z,94315.59
2022-11-14T17:39:27.172Z,94314.59
2022-11-14T17:41:53.927Z,94314.00
2022-11-14T17:44:20.678Z,94306.25
2022-11-14T17:46:48.385Z,94305.44
2022-11-14T17:49:15.164Z,94301.47
2022-11-14T17:51:41.827Z,94292.09
2022-11-14T17:54:09.098Z,94293.53
2022-11-14T17:56:37.277Z,94300.50
2022-11-14T17:59:05.766Z,94285.34
2022-11-14T18:01:32.648Z,94288.38
2022-11-14T18:04:04.499Z,94287.38
2022-11-14T18:06:33.435Z,94276.81
2022-11-14T18:09:04.967Z,94271.22
2022-11-14T18:11:31.818Z,94264.25
2022-11-14T18:13:58.649Z,94265.44
2022-11-14T18:16:31.446Z,94268.00
2022-11-14T18:19:06.535Z,94259.66
2022-11-14T18:21:33.295Z,94279.38
2022-11-14T18:24:00.402Z,94287.16
2022-11-14T18:26:28.715Z,94292.13
2022-11-14T18:29:01.095Z,94289.16
2022-11-14T18:31:28.315Z,94276.44
2022-11-14T18:33:55.239Z,94276.81
2022-11-14T18:36:22.254Z,94276.41
2022-11-14T18:38:49.277Z,94274.84
2022-11-14T18:41:21.243Z,94278.81
2022-11-14T18:43:48.556Z,94272.03
2022-11-14T18:46:20.376Z,94268.88
2022-11-14T18:48:49.055Z,94271.03
2022-11-14T18:51:18.766Z,94268.84
2022-11-14T18:53:45.763Z,94272.59
2022-11-14T18:56:15.843Z,94270.00
2022-11-14T18:58:43.505Z,94268.66
2022-11-14T19:01:11.242Z,94263.69
2022-11-14T19:03:38.234Z,94261.09
2022-11-14T19:06:07.105Z,94261.28
2022-11-14T19:08:33.955Z,94260.50
2022-11-14T19:11:05.015Z,94256.13
2022-11-14T19:13:31.923Z,94243.78
2022-11-14T19:16:03.463Z,94240.41
2022-11-14T19:18:31.416Z,94248.78
2022-11-14T19:20:59.906Z,94246.56
2022-11-14T19:23:27.090Z,94250.16
2022-11-14T19:26:02.789Z,94259.31
2022-11-14T19:28:29.604Z,94266.47
2022-11-14T19:31:04.021Z,94251.13
2022-11-14T19:33:31.684Z,94257.72
2022-11-14T19:36:04.520Z,94248.56
2022-11-14T19:38:31.217Z,94254.91
2022-11-14T19:41:03.514Z,94235.84
2022-11-14T19:43:31.438Z,94240.41
2022-11-14T19:46:05.712Z,94237.44
2022-11-14T19:48:33.202Z,94229.88
2022-11-14T19:51:04.295Z,94248.94
2022-11-14T19:53:33.687Z,94247.38
2022-11-14T19:56:06.328Z,94235.03
2022-11-14T19:58:35.935Z,94239.38
2022-11-14T20:01:03.913Z,94227.84
2022-11-14T20:03:31.204Z,94232.25
2022-11-14T20:05:58.170Z,94222.31
2022-11-14T20:08:25.312Z,94220.31
2022-11-14T20:11:03.079Z,94225.28
2022-11-14T20:13:31.148Z,94225.09
2022-11-14T20:15:58.174Z,94231.06
2022-11-14T20:18:24.922Z,94215.13
2022-11-14T20:20:51.607Z,94233.44
2022-11-14T20:23:18.240Z,94241.41
2022-11-14T20:25:51.191Z,94244.56
2022-11-14T20:28:17.812Z,94251.53
2022-11-14T20:30:44.444Z,94250.13
2022-11-14T20:33:11.355Z,94245.94
2022-11-14T20:35:38.257Z,94244.94
2022-11-14T20:38:05.523Z,94244.34
2022-11-14T20:40:32.388Z,94246.03
2022-11-14T20:42:59.700Z,94240.47
2022-11-14T20:45:27.171Z,94244.25
2022-11-14T20:47:54.790Z,94245.63
2022-11-14T20:50:21.664Z,94244.22
2022-11-14T20:52:48.516Z,94245.84
2022-11-14T20:55:15.935Z,94239.25
2022-11-14T20:57:42.897Z,94235.84
2022-11-14T21:00:10.241Z,94232.88
2022-11-14T21:02:37.037Z,94238.88
2022-11-14T21:05:03.936Z,94240.16
2022-11-14T21:07:30.600Z,94237.72
2022-11-14T21:10:15.740Z,94239.31
2022-11-14T21:12:45.695Z,94246.63
2022-11-14T21:15:16.113Z,94241.03
2022-11-14T21:17:42.684Z,94252.09
2022-11-14T21:20:09.819Z,94244.06
2022-11-14T21:22:36.389Z,94243.31
2022-11-14T21:25:03.954Z,94245.66
2022-11-14T21:27:30.692Z,94230.78
2022-11-14T21:29:57.288Z,94225.03
2022-11-14T21:32:23.873Z,94228.91
2022-11-14T21:34:50.459Z,94223.81
2022-11-14T21:37:17.071Z,94233.03
2022-11-14T21:39:43.625Z,94219.72
2022-11-14T21:42:13.038Z,94226.66
2022-11-14T21:44:43.714Z,94231.81
2022-11-14T21:47:10.314Z,94219.53
2022-11-14T21:49:36.892Z,94218.94
2022-11-14T21:52:03.521Z,94225.84
2022-11-14T21:54:30.110Z,94229.16
2022-11-14T21:56:56.701Z,94223.63
2022-11-14T21:59:27.461Z,94223.53
2022-11-14T22:02:12.793Z,94225.91
2022-11-14T22:04:39.555Z,94208.00
2022-11-14T22:07:07.426Z,94222.56
2022-11-14T22:09:34.501Z,94220.00
2022-11-14T22:12:01.321Z,94216.75
2022-11-14T22:14:28.058Z,94224.03
2022-11-14T22:16:54.751Z,94221.16
2022-11-14T22:19:21.710Z,94216.25
2022-11-14T22:21:48.516Z,94213.19
2022-11-14T22:24:15.205Z,94220.81
2022-11-14T22:26:41.837Z,94210.97
2022-11-14T22:29:08.817Z,94220.38
2022-11-14T22:31:35.772Z,94206.94
2022-11-14T22:34:02.661Z,94222.22
2022-11-14T22:36:29.481Z,94211.16
2022-11-14T22:38:56.902Z,94215.75
2022-11-14T22:41:30.725Z,94209.97
2022-11-14T22:43:59.331Z,94204.66
2022-11-14T22:46:27.444Z,94213.06
2022-11-14T22:48:54.833Z,94213.78
2022-11-14T22:51:23.646Z,94226.06
2022-11-14T22:53:57.528Z,94216.19
2022-11-14T22:56:26.353Z,94220.19
2022-11-14T22:58:52.969Z,94216.03
2022-11-14T23:01:22.151Z,94215.66
2022-11-14T23:03:53.456Z,94208.75
2022-11-14T23:06:20.111Z,94199.28
2022-11-14T23:08:46.791Z,94205.88
2022-11-14T23:11:16.465Z,94190.88
2022-11-14T23:13:48.017Z,94188.28
2022-11-14T23:16:17.595Z,94182.25
2022-11-14T23:18:44.511Z,94178.81
2022-11-14T23:21:16.475Z,94184.94
2022-11-14T23:23:43.144Z,94185.00
2022-11-14T23:26:15.261Z,94186.72
2022-11-14T23:28:42.442Z,94190.88
2022-11-14T23:31:10.033Z,94190.88
2022-11-14T23:33:36.671Z,94185.09
2022-11-14T23:36:03.476Z,94186.69
2022-11-14T23:38:32.869Z,94180.91
2022-11-14T23:41:00.996Z,94176.63
2022-11-14T23:43:28.820Z,94158.00
2022-11-14T23:45:56.333Z,94174.09
2022-11-14T23:48:23.568Z,94176.41
2022-11-14T23:50:54.861Z,94171.75
2022-11-14T23:53:22.159Z,94173.22
2022-11-14T23:55:53.373Z,94165.44
2022-11-14T23:58:20.733Z,94163.19
